This is the latest recevied weather packets stored in our database for station/object N4OOJ-13. If no packets are shown the sender has not sent any weather packets the latest 10 day(s).
| Time | Temp. | Humidity | Pressure | Rain* | Wind** | Luminosity | Snow |
|---|---|---|---|---|---|---|---|
| 1787508632 | 35° C | 61% | 1015.5 hPa | 0 mm | - | - | - |
| 1787508031 | 34.44° C | 62% | 1015.5 hPa | 0 mm | - | - | - |
| 1787507423 | 35° C | 60% | 1015.6 hPa | 0 mm | - | - | - |
| 1787506818 | 35° C | 60% | 1015.6 hPa | 0 mm | - | - | - |
| 1787506230 | 35° C | 62% | 1015.8 hPa | 0 mm | - | - | - |
| 1787505624 | 34.44° C | 64% | 1015.9 hPa | 0 mm | - | - | - |
| 1787505019 | 35° C | 61% | 1015.9 hPa | 0 mm | - | - | - |
| 1787504431 | 36.11° C | 61% | 1015.9 hPa | 0 mm | - | - | - |
| 1787503830 | 35.56° C | 62% | 1016 hPa | 0 mm | - | - | - |
| 1787503228 | 34.44° C | 68% | 1016.2 hPa | 0 mm | - | - | - |
| 1787502627 | 34.44° C | 66% | 1016.3 hPa | 0 mm | - | - | - |
| 1787502025 | 35° C | 66% | 1016.3 hPa | 0 mm | - | - | - |
| 1787501419 | 33.33° C | 72% | 1016.3 hPa | 0 mm | - | - | - |
| 1787500821 | 33.89° C | 70% | 1016.4 hPa | 0 mm | - | - | - |
| 1787500221 | 33.89° C | 69% | 1016.5 hPa | 0 mm | - | - | - |
| 1787499616 | 33.89° C | 71% | 1016.6 hPa | 0 mm | - | - | - |
| 1787499016 | 33.33° C | 71% | 1016.7 hPa | 0 mm | - | - | - |
| 1787498430 | 31.67° C | 75% | 1016.8 hPa | 0 mm | - | - | - |
| 1787497824 | 32.22° C | 77% | 1016.8 hPa | 0 mm | - | - | - |
| 1787497223 | 31.11° C | 79% | 1016.7 hPa | 0 mm | - | - | - |
| 1787496621 | 31.11° C | 76% | 1016.7 hPa | 0 mm | - | - | - |
| 1787496027 | 30.56° C | 78% | 1016.8 hPa | 0 mm | - | - | - |
| 1787495422 | 30° C | 82% | 1016.8 hPa | 0 mm | - | - | - |
| 1787494821 | 29.44° C | 84% | 1016.9 hPa | 0 mm | - | - | - |
| 1787494216 | 28.89° C | 85% | 1016.9 hPa | 0 mm | - | - | - |
* Rain latest hour (hover to see other rain measurements)
** Current wind speed in m/s (hover to see current wind gust speed)